Athol, South Dakota
Current Conditions -  °F | °C
As of 11:53 PM on Tuesday 25 Nov 2014 (Local Time) from KABR Reporting Station
Overcast Overcast  
Wind Chill: 20°   Ceiling: 700
Heat Index: 31°   Visibility: 9mi
Dew Point: 28°   Wind: 15mph
Humidity: 89%   Direction: 40°NE
Pressure: 29.87"   Gusts: NA
Location:  45.027°N, 98.472°W
Report Text: KABR 260553Z AUTO 04013KT 9SM BKN007 OVC011 M01/M02 A2987 RMK AO2 SLP131 60009 T10061022 10000 21011 400001139 53026
Loading
Personal Weather Stations






























Interactive Weather Map New forecast layout! Learn more

10-Day Weather Forecast

Advertisements
Track Severe Weather on mobile